Glenariff, United Kingdom
Current Conditions -  °F | °C
As of 7:50 AM on Thursday 29 Jan 2015 (Local Time) from EGAA Reporting Station
Scattered Clouds Scattered Clouds  
Wind Chill: -5°   Ceiling: Unl
Heat Index:   Visibility: 6mi
Dew Point:   Wind: 10mph
Humidity: 100%   Direction: 260°W
Pressure: 28.97"   Gusts: NA
Location:  55.05°N, 6.07°W
Report Text: EGAA 290750Z 26009KT 9999 FEW005 SCT012CB M00/M00 Q0981 RESN R/SNOCLO
Loading
Personal Weather Stations






























Interactive Weather Map New forecast layout! Learn more

10-Day Weather Forecast

Advertisements
Track Severe Weather on mobile